Terminal Aerodrome Forecast
Issued by NWS

Home | Current Version | Previous Version | Text Only | Print | Product List | Glossary On
Versions: 1 2 3 4 5 6 7 8 9 10 11 12 13 14 15 16 17 18 19 20 21 22 23 24 25 26 27 28 29 30 31 32 33 34 35 36
449
FTUS43 KDMX 110539
TAFMCW
TAF
KMCW 110539Z 1106/1206 12012KT 1SM -SN BR SCT008 OVC018
     FM111000 14012KT 3SM -SN OVC008
     FM111600 21010KT P6SM OVC009
     FM112100 30014G18KT P6SM OVC011
     FM120300 31013G22KT P6SM BKN040=

USA.gov is the U.S. government's official web portal to all federal, state and local government web resources and services.